createdAt,value
2022-11-14T00:01:32.656Z,74.40
2022-11-14T00:04:19.196Z,74.81
2022-11-14T00:07:06.517Z,74.91
2022-11-14T00:09:52.751Z,74.65
2022-11-14T00:12:39.211Z,74.77
2022-11-14T00:15:25.758Z,74.98
2022-11-14T00:18:13.728Z,75.63
2022-11-14T00:21:00.097Z,75.92
2022-11-14T00:23:46.623Z,75.67
2022-11-14T00:26:32.971Z,75.65
2022-11-14T00:29:19.131Z,74.50
2022-11-14T00:32:06.031Z,75.34
2022-11-14T00:34:53.540Z,74.51
2022-11-14T00:37:39.924Z,74.55
2022-11-14T00:40:26.527Z,74.46
2022-11-14T00:43:12.672Z,74.79
2022-11-14T00:45:59.204Z,75.34
2022-11-14T00:48:45.804Z,75.56
2022-11-14T00:51:33.606Z,75.35
2022-11-14T00:54:19.959Z,75.95
2022-11-14T00:57:06.491Z,75.94
2022-11-14T00:59:55.547Z,75.57
2022-11-14T01:02:41.979Z,75.46
2022-11-14T01:05:28.968Z,75.52
2022-11-14T01:08:18.589Z,75.49
2022-11-14T01:11:10.410Z,75.86
2022-11-14T01:13:57.019Z,74.74
2022-11-14T01:16:43.468Z,74.56
2022-11-14T01:19:30.008Z,74.68
2022-11-14T01:22:16.587Z,74.51
2022-11-14T01:25:04.673Z,74.66
2022-11-14T01:27:52.043Z,75.03
2022-11-14T01:30:38.662Z,74.31
2022-11-14T01:33:24.828Z,74.87
2022-11-14T01:36:11.807Z,74.65
2022-11-14T01:38:58.171Z,75.06
2022-11-14T01:41:45.690Z,73.85
2022-11-14T01:44:47.736Z,73.83
2022-11-14T01:47:34.508Z,73.88
2022-11-14T01:50:21.116Z,72.90
2022-11-14T01:53:07.612Z,74.08
2022-11-14T01:55:57.120Z,74.70
2022-11-14T01:58:48.001Z,74.72
2022-11-14T02:01:37.928Z,75.12
2022-11-14T02:04:29.369Z,74.14
2022-11-14T02:07:16.334Z,73.90
2022-11-14T02:10:06.606Z,74.82
2022-11-14T02:12:53.953Z,73.61
2022-11-14T02:15:42.231Z,73.84
2022-11-14T02:18:28.986Z,73.81
2022-11-14T02:21:16.940Z,73.85
2022-11-14T02:24:03.422Z,74.40
2022-11-14T02:26:51.445Z,74.74
2022-11-14T02:29:37.989Z,74.49
2022-11-14T02:32:24.533Z,74.40
2022-11-14T02:35:11.199Z,74.13
2022-11-14T02:37:59.014Z,74.23
2022-11-14T02:40:45.547Z,74.25
2022-11-14T02:43:32.134Z,74.35
2022-11-14T02:46:18.558Z,73.62
2022-11-14T02:49:04.966Z,74.05
2022-11-14T02:51:51.585Z,73.94
2022-11-14T02:54:39.355Z,74.20
2022-11-14T02:57:25.912Z,74.90
2022-11-14T03:00:15.328Z,75.91
2022-11-14T03:03:01.941Z,76.15
2022-11-14T03:05:48.361Z,76.40
2022-11-14T03:08:35.035Z,76.35
2022-11-14T03:11:23.137Z,76.76
2022-11-14T03:14:09.548Z,76.64
2022-11-14T03:16:56.842Z,76.42
2022-11-14T03:19:43.321Z,76.35
2022-11-14T03:22:29.615Z,75.80
2022-11-14T03:25:16.088Z,75.19
2022-11-14T03:28:03.836Z,75.29
2022-11-14T03:30:50.229Z,74.75
2022-11-14T03:33:37.061Z,74.50
2022-11-14T03:36:23.586Z,74.30
2022-11-14T03:39:09.878Z,73.54
2022-11-14T03:41:56.170Z,73.47
2022-11-14T03:44:43.905Z,72.65
2022-11-14T03:47:30.122Z,72.48
2022-11-14T03:50:17.199Z,72.45
2022-11-14T03:53:03.983Z,71.56
2022-11-14T03:55:50.327Z,72.10
2022-11-14T03:58:37.014Z,72.16
2022-11-14T04:01:24.939Z,72.35
2022-11-14T04:04:12.972Z,72.66
2022-11-14T04:06:59.347Z,73.14
2022-11-14T04:09:47.134Z,72.92
2022-11-14T04:12:33.522Z,72.76
2022-11-14T04:15:20.918Z,72.54
2022-11-14T04:18:08.769Z,72.33
2022-11-14T04:20:55.289Z,71.94
2022-11-14T04:23:41.749Z,71.93
2022-11-14T04:26:28.171Z,72.26
2022-11-14T04:29:14.732Z,71.92
2022-11-14T04:32:00.982Z,72.25
2022-11-14T04:34:48.952Z,73.14
2022-11-14T04:37:38.602Z,73.01
2022-11-14T04:40:24.977Z,72.69
2022-11-14T04:43:11.446Z,72.64
2022-11-14T04:45:57.972Z,73.15
2022-11-14T04:48:44.477Z,73.01
2022-11-14T04:51:32.447Z,73.10
2022-11-14T04:54:18.724Z,72.89
2022-11-14T04:57:05.382Z,73.13
2022-11-14T04:59:51.781Z,73.05
2022-11-14T05:02:38.313Z,72.57
2022-11-14T05:05:24.711Z,72.81
2022-11-14T05:08:12.540Z,73.46
2022-11-14T05:10:59.082Z,73.93
2022-11-14T05:13:46.116Z,73.79
2022-11-14T05:16:32.769Z,73.47
2022-11-14T05:19:19.009Z,73.04
2022-11-14T05:22:05.561Z,73.66
2022-11-14T05:24:53.443Z,74.20
2022-11-14T05:27:39.910Z,74.62
2022-11-14T05:30:26.573Z,74.20
2022-11-14T05:33:13.082Z,74.53
2022-11-14T05:36:03.442Z,74.64
2022-11-14T05:38:50.135Z,74.54
2022-11-14T05:41:37.898Z,75.38
2022-11-14T05:44:24.511Z,75.54
2022-11-14T05:47:10.907Z,75.51
2022-11-14T05:49:57.467Z,75.71
2022-11-14T05:52:43.996Z,75.62
2022-11-14T05:55:30.669Z,75.01
2022-11-14T05:58:18.460Z,74.99
2022-11-14T06:01:06.260Z,75.11
2022-11-14T06:03:52.608Z,75.74
2022-11-14T06:06:39.272Z,75.90
2022-11-14T06:09:25.641Z,75.85
2022-11-14T06:12:12.176Z,76.16
2022-11-14T06:15:00.259Z,76.64
2022-11-14T06:17:47.664Z,77.24
2022-11-14T06:20:34.241Z,76.68
2022-11-14T06:23:24.771Z,76.25
2022-11-14T06:26:16.305Z,75.67
2022-11-14T06:29:02.638Z,74.98
2022-11-14T06:31:50.399Z,74.39
2022-11-14T06:34:36.803Z,74.12
2022-11-14T06:37:23.461Z,73.55
2022-11-14T06:40:11.147Z,73.60
2022-11-14T06:42:57.730Z,73.45
2022-11-14T06:45:44.495Z,73.15
2022-11-14T06:48:32.789Z,73.55
2022-11-14T06:51:19.985Z,73.61
2022-11-14T06:54:06.593Z,72.97
2022-11-14T06:56:53.047Z,72.97
2022-11-14T06:59:39.546Z,72.60
2022-11-14T07:02:26.140Z,72.24
2022-11-14T07:05:13.982Z,72.07
2022-11-14T07:08:00.422Z,72.64
2022-11-14T07:10:46.877Z,72.65
2022-11-14T07:13:34.082Z,72.84
2022-11-14T07:16:20.828Z,72.18
2022-11-14T07:19:09.258Z,72.52
2022-11-14T07:21:57.114Z,72.37
2022-11-14T07:24:43.486Z,72.61
2022-11-14T07:27:29.936Z,72.17
2022-11-14T07:30:16.874Z,72.84
2022-11-14T07:33:03.042Z,72.08
2022-11-14T07:35:49.439Z,72.46
2022-11-14T07:38:38.879Z,72.83
2022-11-14T07:41:25.355Z,72.92
2022-11-14T07:44:11.827Z,73.70
2022-11-14T07:46:58.518Z,73.32
2022-11-14T07:49:45.018Z,72.92
2022-11-14T07:52:32.303Z,72.79
2022-11-14T07:55:20.540Z,73.14
2022-11-14T07:58:06.825Z,73.78
2022-11-14T08:00:53.305Z,73.80
2022-11-14T08:03:45.317Z,73.52
2022-11-14T08:06:32.407Z,73.92
2022-11-14T08:09:18.845Z,75.37
2022-11-14T08:12:07.442Z,75.54
2022-11-14T08:14:53.999Z,75.70
2022-11-14T08:17:40.939Z,76.26
2022-11-14T08:20:28.379Z,76.75
2022-11-14T08:23:15.264Z,76.65
2022-11-14T08:26:01.524Z,77.32
2022-11-14T08:28:49.299Z,76.34
2022-11-14T08:31:35.779Z,76.93
2022-11-14T08:34:23.614Z,76.93
2022-11-14T08:37:09.815Z,77.75
2022-11-14T08:39:56.236Z,77.42
2022-11-14T08:42:42.698Z,77.53
2022-11-14T08:45:30.877Z,77.95
2022-11-14T08:48:17.283Z,77.88
2022-11-14T08:51:05.986Z,77.56
2022-11-14T08:53:52.495Z,76.79
2022-11-14T08:56:39.206Z,76.53
2022-11-14T08:59:25.890Z,76.79
2022-11-14T09:02:14.190Z,77.44
2022-11-14T09:05:00.732Z,77.07
2022-11-14T09:07:47.192Z,76.59
2022-11-14T09:10:33.608Z,77.25
2022-11-14T09:13:20.279Z,77.24
2022-11-14T09:16:07.265Z,76.68
2022-11-14T09:18:55.205Z,77.20
2022-11-14T09:21:41.774Z,76.94
2022-11-14T09:24:28.248Z,77.73
2022-11-14T09:27:14.720Z,76.98
2022-11-14T09:30:01.025Z,77.60
2022-11-14T09:32:47.385Z,77.79
2022-11-14T09:35:36.592Z,78.02
2022-11-14T09:38:22.980Z,77.62
2022-11-14T09:41:24.392Z,78.21
2022-11-14T09:44:43.939Z,77.97
2022-11-14T09:47:34.446Z,77.56
2022-11-14T09:50:26.173Z,77.81
2022-11-14T09:53:24.560Z,77.52
2022-11-14T09:56:14.254Z,77.57
2022-11-14T09:59:00.507Z,77.17
2022-11-14T10:01:54.556Z,77.54
2022-11-14T10:04:53.791Z,77.11
2022-11-14T10:07:53.232Z,77.12
2022-11-14T10:10:53.084Z,77.28
2022-11-14T10:13:59.526Z,77.06
2022-11-14T10:16:54.531Z,77.15
2022-11-14T10:19:48.063Z,77.38
2022-11-14T10:22:51.813Z,77.16
2022-11-14T10:25:53.738Z,77.25
2022-11-14T10:28:49.739Z,77.17
2022-11-14T10:31:47.740Z,77.69
2022-11-14T10:34:37.339Z,77.49
2022-11-14T10:37:29.011Z,77.57
2022-11-14T10:40:18.766Z,77.69
2022-11-14T10:43:17.567Z,77.52
2022-11-14T10:46:09.146Z,77.17
2022-11-14T10:49:00.025Z,76.79
2022-11-14T10:51:50.751Z,76.80
2022-11-14T10:54:42.118Z,77.08
2022-11-14T10:57:29.836Z,76.25
2022-11-14T11:00:20.932Z,76.33
2022-11-14T11:03:07.552Z,76.16
2022-11-14T11:05:57.474Z,75.90
2022-11-14T11:09:02.100Z,75.53
2022-11-14T11:11:55.946Z,75.41
2022-11-14T11:14:42.876Z,75.43
2022-11-14T11:17:37.104Z,75.03
2022-11-14T11:20:33.197Z,75.29
2022-11-14T11:23:23.616Z,75.78
2022-11-14T11:26:18.229Z,74.96
2022-11-14T11:29:15.857Z,74.69
2022-11-14T11:32:02.223Z,73.51
2022-11-14T11:34:49.884Z,74.46
2022-11-14T11:37:43.430Z,74.21
2022-11-14T11:40:31.142Z,73.87
2022-11-14T11:43:44.139Z,73.86
2022-11-14T11:46:38.869Z,74.48
2022-11-14T11:49:33.623Z,74.23
2022-11-14T11:52:31.335Z,74.44
2022-11-14T11:55:21.618Z,74.03
2022-11-14T11:58:17.523Z,73.23
2022-11-14T12:01:03.720Z,72.88
2022-11-14T12:03:52.333Z,72.92
2022-11-14T12:06:46.976Z,72.64
2022-11-14T12:10:08.859Z,72.13
2022-11-14T12:13:14.940Z,72.12
2022-11-14T12:16:30.838Z,72.32
2022-11-14T12:19:42.005Z,72.29
2022-11-14T12:22:52.698Z,71.28
2022-11-14T12:25:48.050Z,71.23
2022-11-14T12:28:53.561Z,71.13
2022-11-14T12:31:41.311Z,70.86
2022-11-14T12:34:33.165Z,70.35
2022-11-14T12:37:24.260Z,70.38
2022-11-14T12:40:25.814Z,69.82
2022-11-14T12:43:36.984Z,69.89
2022-11-14T12:46:24.094Z,69.75
2022-11-14T12:49:38.047Z,69.77
2022-11-14T12:52:43.608Z,68.61
2022-11-14T12:56:08.869Z,68.50
2022-11-14T12:59:19.518Z,67.73
2022-11-14T13:02:35.526Z,67.37
2022-11-14T13:05:49.605Z,67.61
2022-11-14T13:08:56.232Z,66.94
2022-11-14T13:12:03.042Z,66.69
2022-11-14T13:15:10.508Z,66.27
2022-11-14T13:18:33.331Z,66.26
2022-11-14T13:21:45.367Z,66.03
2022-11-14T13:25:05.615Z,65.40
2022-11-14T13:28:19.047Z,64.63
2022-11-14T13:31:20.438Z,64.43
2022-11-14T13:34:37.164Z,64.57
2022-11-14T13:37:42.147Z,63.86
2022-11-14T13:40:34.399Z,63.72
2022-11-14T13:43:30.477Z,63.66
2022-11-14T13:46:30.855Z,63.62
2022-11-14T13:49:33.787Z,63.44
2022-11-14T13:52:20.728Z,62.99
2022-11-14T13:55:08.392Z,62.97
2022-11-14T13:58:08.079Z,62.64
2022-11-14T14:01:09.805Z,62.83
2022-11-14T14:04:18.973Z,62.82
2022-11-14T14:07:12.624Z,62.74
2022-11-14T14:10:07.558Z,62.65
2022-11-14T14:13:08.479Z,62.72
2022-11-14T14:16:05.070Z,62.18
2022-11-14T14:19:00.872Z,62.15
2022-11-14T14:21:57.010Z,61.83
2022-11-14T14:24:54.151Z,61.60
2022-11-14T14:27:53.258Z,61.61
2022-11-14T14:30:39.539Z,61.89
2022-11-14T14:33:26.986Z,62.06
2022-11-14T14:36:21.843Z,62.04
2022-11-14T14:39:18.172Z,62.47
2022-11-14T14:42:12.328Z,62.79
2022-11-14T14:44:59.435Z,63.65
2022-11-14T14:47:49.320Z,63.90
2022-11-14T14:50:40.704Z,64.05
2022-11-14T14:53:29.864Z,63.95
2022-11-14T14:56:21.818Z,64.97
2022-11-14T14:59:18.368Z,64.77
2022-11-14T15:02:05.589Z,65.64
2022-11-14T15:04:52.478Z,66.51
2022-11-14T15:07:41.823Z,67.39
2022-11-14T15:10:30.738Z,67.26
2022-11-14T15:13:19.376Z,68.21
2022-11-14T15:16:07.651Z,68.11
2022-11-14T15:18:56.264Z,67.94
2022-11-14T15:21:43.961Z,68.08
2022-11-14T15:24:30.927Z,68.10
2022-11-14T15:27:19.398Z,68.18
2022-11-14T15:30:20.926Z,68.40
2022-11-14T15:33:26.955Z,69.03
2022-11-14T15:36:17.596Z,68.65
2022-11-14T15:39:06.356Z,69.08
2022-11-14T15:42:13.029Z,69.47
2022-11-14T15:44:59.334Z,70.43
2022-11-14T15:47:46.886Z,70.59
2022-11-14T15:50:36.394Z,70.73
2022-11-14T15:53:25.182Z,70.50
2022-11-14T15:56:13.964Z,70.71
2022-11-14T15:59:00.575Z,70.80
2022-11-14T16:01:50.196Z,71.94
2022-11-14T16:04:44.365Z,72.17
2022-11-14T16:07:32.714Z,71.35
2022-11-14T16:10:20.245Z,72.28
2022-11-14T16:13:07.451Z,71.60
2022-11-14T16:15:53.921Z,72.00
2022-11-14T16:18:40.513Z,71.85
2022-11-14T16:21:28.511Z,72.18
2022-11-14T16:24:17.897Z,72.83
2022-11-14T16:27:04.832Z,72.91
2022-11-14T16:29:51.211Z,72.33
2022-11-14T16:32:37.628Z,72.90
2022-11-14T16:35:26.137Z,73.05
2022-11-14T16:38:14.647Z,73.45
2022-11-14T16:41:01.208Z,73.88
2022-11-14T16:43:47.672Z,74.07
2022-11-14T16:46:33.976Z,74.09
2022-11-14T16:49:20.833Z,74.15
2022-11-14T16:52:08.742Z,74.50
2022-11-14T16:54:56.620Z,74.12
2022-11-14T16:57:42.979Z,74.72
2022-11-14T17:00:29.521Z,75.07
2022-11-14T17:03:16.459Z,74.68
2022-11-14T17:06:02.864Z,75.63
2022-11-14T17:08:49.248Z,75.22
2022-11-14T17:11:37.164Z,75.73
2022-11-14T17:14:23.711Z,75.58
2022-11-14T17:17:10.267Z,75.94
2022-11-14T17:19:58.910Z,75.79
2022-11-14T17:22:45.503Z,75.56
2022-11-14T17:25:32.162Z,75.63
2022-11-14T17:28:20.051Z,75.78
2022-11-14T17:31:09.567Z,76.01
2022-11-14T17:33:58.199Z,75.78
2022-11-14T17:36:44.561Z,76.26
2022-11-14T17:39:30.885Z,76.19
2022-11-14T17:42:17.330Z,76.65
2022-11-14T17:45:05.706Z,76.33
2022-11-14T17:47:52.427Z,75.74
2022-11-14T17:50:39.702Z,76.60
2022-11-14T17:53:25.928Z,77.34
2022-11-14T17:56:15.158Z,76.08
2022-11-14T17:59:01.474Z,76.18
2022-11-14T18:01:49.447Z,76.60
2022-11-14T18:04:36.008Z,76.54
2022-11-14T18:07:22.379Z,77.00
2022-11-14T18:10:09.876Z,76.47
2022-11-14T18:12:56.138Z,76.58
2022-11-14T18:15:42.591Z,76.84
2022-11-14T18:18:31.298Z,77.08
2022-11-14T18:21:19.889Z,76.92
2022-11-14T18:24:06.940Z,76.79
2022-11-14T18:26:53.452Z,76.77
2022-11-14T18:29:40.129Z,77.11
2022-11-14T18:32:26.777Z,77.23
2022-11-14T18:35:14.773Z,77.36
2022-11-14T18:38:01.007Z,77.39
2022-11-14T18:40:50.641Z,77.23
2022-11-14T18:43:39.370Z,77.39
2022-11-14T18:46:27.357Z,77.52
2022-11-14T18:49:13.727Z,76.88
2022-11-14T18:52:09.119Z,76.90
2022-11-14T18:54:57.876Z,77.11
2022-11-14T18:57:44.412Z,76.83
2022-11-14T19:00:30.944Z,76.98
2022-11-14T19:03:17.295Z,76.69
2022-11-14T19:06:04.434Z,76.34
2022-11-14T19:08:56.689Z,76.18
2022-11-14T19:12:03.457Z,76.26
2022-11-14T19:14:51.644Z,76.50
2022-11-14T19:17:38.207Z,76.39
2022-11-14T19:20:24.841Z,76.27
2022-11-14T19:23:12.516Z,76.44
2022-11-14T19:26:01.316Z,76.87
2022-11-14T19:28:47.839Z,76.80
2022-11-14T19:31:34.976Z,76.50
2022-11-14T19:34:21.231Z,76.47
2022-11-14T19:37:07.456Z,76.85
2022-11-14T19:39:55.460Z,76.40
2022-11-14T19:42:43.124Z,76.06
2022-11-14T19:45:29.692Z,75.96
2022-11-14T19:48:16.233Z,75.87
2022-11-14T19:51:04.094Z,77.14
2022-11-14T19:53:50.314Z,77.09
2022-11-14T19:56:37.048Z,77.02
2022-11-14T19:59:27.805Z,78.01
2022-11-14T20:02:14.286Z,77.61
2022-11-14T20:05:00.638Z,78.99
2022-11-14T20:07:47.739Z,79.21
2022-11-14T20:10:47.407Z,79.07
2022-11-14T20:13:35.117Z,79.51
2022-11-14T20:16:24.794Z,78.45
2022-11-14T20:19:11.832Z,79.16
2022-11-14T20:21:58.110Z,78.32
2022-11-14T20:24:44.682Z,77.79
2022-11-14T20:27:30.951Z,77.85
2022-11-14T20:30:19.886Z,78.63
2022-11-14T20:33:08.444Z,79.27
2022-11-14T20:35:55.007Z,78.80
2022-11-14T20:38:42.633Z,79.26
2022-11-14T20:41:28.895Z,79.69
2022-11-14T20:44:15.387Z,79.01
2022-11-14T20:47:01.810Z,79.31
2022-11-14T20:49:50.251Z,79.18
2022-11-14T20:52:38.877Z,78.25
2022-11-14T20:55:25.619Z,77.73
2022-11-14T20:58:12.196Z,77.85
2022-11-14T21:00:58.795Z,77.18
2022-11-14T21:03:45.606Z,77.95
2022-11-14T21:06:33.367Z,76.95
2022-11-14T21:09:19.563Z,76.70
2022-11-14T21:12:06.779Z,76.48
2022-11-14T21:14:53.108Z,76.38
2022-11-14T21:17:39.459Z,76.32
2022-11-14T21:20:26.163Z,75.89
2022-11-14T21:23:14.071Z,76.14
2022-11-14T21:26:06.015Z,75.39
2022-11-14T21:28:55.825Z,74.87
2022-11-14T21:31:44.493Z,74.54
2022-11-14T21:34:31.196Z,75.84
2022-11-14T21:37:17.676Z,75.96
2022-11-14T21:40:09.221Z,75.99
2022-11-14T21:42:55.912Z,75.64
2022-11-14T21:45:42.534Z,75.74
2022-11-14T21:48:31.722Z,75.75
2022-11-14T21:51:20.608Z,75.38
2022-11-14T21:54:08.258Z,75.79
2022-11-14T21:56:57.175Z,75.40
2022-11-14T21:59:43.938Z,75.86
2022-11-14T22:02:50.524Z,76.30
2022-11-14T22:05:37.134Z,75.53
2022-11-14T22:08:23.459Z,76.01
2022-11-14T22:11:10.162Z,75.86
2022-11-14T22:13:59.353Z,75.88
2022-11-14T22:16:45.982Z,75.27
2022-11-14T22:19:32.503Z,77.03
2022-11-14T22:22:19.200Z,77.37
2022-11-14T22:25:06.568Z,78.29
2022-11-14T22:27:54.522Z,78.56
2022-11-14T22:30:42.272Z,78.24
2022-11-14T22:33:31.546Z,78.62
2022-11-14T22:36:19.698Z,78.28
2022-11-14T22:39:06.524Z,77.91
2022-11-14T22:41:52.732Z,78.02
2022-11-14T22:44:39.206Z,77.17
2022-11-14T22:47:26.986Z,77.62
2022-11-14T22:50:13.437Z,78.25
2022-11-14T22:52:59.915Z,77.94
2022-11-14T22:55:49.602Z,78.21
2022-11-14T22:58:38.120Z,77.60
2022-11-14T23:01:26.068Z,77.30
2022-11-14T23:04:13.878Z,77.66
2022-11-14T23:07:00.270Z,76.25
2022-11-14T23:09:46.779Z,76.32
2022-11-14T23:12:33.243Z,77.27
2022-11-14T23:15:20.169Z,76.22
2022-11-14T23:18:07.755Z,75.79
2022-11-14T23:20:55.583Z,76.14
2022-11-14T23:23:42.419Z,75.80
2022-11-14T23:26:30.649Z,76.62
2022-11-14T23:29:16.920Z,75.46
2022-11-14T23:32:03.158Z,76.02
2022-11-14T23:34:49.667Z,75.48
2022-11-14T23:37:37.457Z,74.80
2022-11-14T23:40:23.670Z,74.96
2022-11-14T23:43:10.190Z,74.85
2022-11-14T23:45:57.011Z,74.34
2022-11-14T23:48:43.639Z,74.24
2022-11-14T23:51:29.927Z,74.54
2022-11-14T23:54:17.616Z,76.19
2022-11-14T23:57:04.754Z,76.41
2022-11-14T23:59:51.121Z,77.84
